Time;durP1;ratioP1;P1;durP2;ratioP2;P2;SDS_P1;SDS_P2;PMS_P1;PMS_P2;Temp;Humidity;BMP_temperature;BMP_pressure;BME280_temperature;BME280_humidity;BME280_pressure;Samples;Min_cycle;Max_cycle;Signal;HPM_P1;HPM_P2
2022/08/30 00:03:26;;;;;;;1999.90;999.90;;;;;;;16.82;100.00;91340.78;4936896;29;20249;-62
2022/08/30 00:05:52;;;;;;;1999.90;999.90;;;;;;;16.80;100.00;91345.38;4921419;29;20186;-61
2022/08/30 00:08:17;;;;;;;1999.90;999.90;;;;;;;16.80;100.00;91348.13;4922863;29;20296;-62
2022/08/30 00:10:44;;;;;;;1999.90;999.90;;;;;;;16.77;100.00;91338.94;4923425;29;20191;-61
2022/08/30 00:13:11;;;;;;;1999.90;999.90;;;;;;;16.77;100.00;91349.22;4938583;29;20219;-61
2022/08/30 00:15:38;;;;;;;1999.90;999.90;;;;;;;16.74;100.00;91355.81;4938650;29;20197;-61
2022/08/30 00:18:04;;;;;;;1999.90;999.90;;;;;;;16.72;100.00;91352.88;4922952;29;20194;-61
2022/08/30 00:20:31;;;;;;;1999.90;999.90;;;;;;;16.69;100.00;91349.19;4922790;29;20253;-61
2022/08/30 00:22:59;;;;;;;1999.90;999.90;;;;;;;16.65;100.00;91356.31;4939202;29;20186;-62
2022/08/30 00:25:24;;;;;;;1999.90;999.90;;;;;;;16.63;100.00;91356.09;4923210;29;20190;-62
2022/08/30 00:27:50;;;;;;;1999.90;999.90;;;;;;;16.57;100.00;91361.03;4938274;29;20296;-61
2022/08/30 00:30:17;;;;;;;1999.90;999.90;;;;;;;16.55;100.00;91361.56;4922565;29;20198;-61
2022/08/30 00:32:42;;;;;;;1999.90;999.90;;;;;;;16.49;100.00;91351.97;4922688;29;20185;-61
2022/08/30 00:35:09;;;;;;;1999.90;999.90;;;;;;;16.48;100.00;91353.22;4922679;29;20204;-62
2022/08/30 00:37:35;;;;;;;1999.90;999.90;;;;;;;16.49;100.00;91341.66;4922599;29;20194;-62
2022/08/30 00:40:01;;;;;;;1999.90;999.90;;;;;;;16.46;100.00;91350.28;4922501;29;20193;-61
2022/08/30 00:42:27;;;;;;;1999.90;999.90;;;;;;;16.39;100.00;91354.41;4923076;29;20182;-62
2022/08/30 00:44:52;;;;;;;1999.90;999.90;;;;;;;16.40;100.00;91438.53;4922486;29;20190;-61
2022/08/30 00:47:19;;;;;;;1999.90;999.90;;;;;;;16.39;100.00;91536.91;4922214;29;20212;-61
2022/08/30 00:49:48;;;;;;;1999.90;999.90;;;;;;;16.35;100.00;91602.59;4922290;29;20214;-61
2022/08/30 00:52:17;;;;;;;1999.90;999.90;;;;;;;16.35;100.00;91597.09;4922313;29;20306;-62
2022/08/30 00:54:45;;;;;;;1999.90;999.90;;;;;;;16.31;100.00;91591.16;4922339;29;20281;-61
2022/08/30 00:57:13;;;;;;;1999.90;999.90;;;;;;;16.30;100.00;91586.94;4922780;29;20189;-62
2022/08/30 00:59:41;;;;;;;1999.90;999.90;;;;;;;16.31;100.00;91585.66;4922357;29;20273;-61
2022/08/30 01:02:07;;;;;;;1999.90;999.90;;;;;;;16.30;100.00;91584.19;4922076;29;20217;-61
2022/08/30 01:04:35;;;;;;;1999.90;999.90;;;;;;;16.30;100.00;91588.94;4922792;29;20194;-61
2022/08/30 01:07:00;;;;;;;1999.90;999.90;;;;;;;16.27;100.00;91590.75;4921928;29;20205;-61
2022/08/30 01:09:26;;;;;;;1999.90;999.90;;;;;;;16.26;100.00;91605.81;4921887;29;20205;-61
2022/08/30 01:11:52;;;;;;;1999.90;999.90;;;;;;;16.23;100.00;91628.88;4922387;29;20185;-61
2022/08/30 01:14:20;;;;;;;1999.90;999.90;;;;;;;16.22;100.00;91643.19;4921845;29;20198;-62
2022/08/30 01:16:46;;;;;;;1999.90;999.90;;;;;;;16.20;100.00;91668.50;4921474;29;20194;-61
2022/08/30 01:19:42;;;;;;;1999.90;999.90;;;;;;;16.21;100.00;91667.22;4937802;29;20277;-62
2022/08/30 01:22:22;;;;;;;1999.90;999.90;;;;;;;16.21;100.00;91664.47;4937927;29;20288;-61
2022/08/30 01:24:50;;;;;;;1999.90;999.90;;;;;;;16.15;100.00;91690.63;4938122;29;20194;-61
2022/08/30 01:27:20;;;;;;;1999.90;999.90;;;;;;;16.12;100.00;91699.94;4937677;29;20316;-61
2022/08/30 01:29:45;;;;;;;1999.90;999.90;;;;;;;16.08;100.00;91708.50;4937922;29;20201;-61
2022/08/30 01:32:19;;;;;;;1999.90;999.90;;;;;;;16.11;100.00;91718.44;4921678;29;20201;-61
2022/08/30 01:34:48;;;;;;;1999.90;999.90;;;;;;;16.07;100.00;91753.81;4937510;29;20190;-60
2022/08/30 01:37:23;;;;;;;1999.90;999.90;;;;;;;16.02;100.00;91762.91;4922231;29;20269;-61
2022/08/30 01:39:49;;;;;;;1999.90;999.90;;;;;;;15.97;100.00;91755.50;4922026;29;20232;-60
2022/08/30 01:42:16;;;;;;;1999.90;999.90;;;;;;;15.94;100.00;91756.56;4921560;29;20217;-62
2022/08/30 01:44:41;;;;;;;1999.90;999.90;;;;;;;15.90;100.00;91788.38;4921471;29;20229;-61
2022/08/30 01:47:07;;;;;;;1999.90;999.90;;;;;;;15.88;100.00;91819.19;4937351;29;20244;-62
2022/08/30 01:49:32;;;;;;;1999.90;999.90;;;;;;;15.85;100.00;91825.72;4921476;29;20240;-62
2022/08/30 01:51:58;;;;;;;1999.90;999.90;;;;;;;15.83;100.00;91833.78;4921418;29;20205;-61
2022/08/30 01:54:23;;;;;;;1999.90;999.90;;;;;;;15.82;100.00;91837.06;4921486;29;20194;-61
2022/08/30 01:56:49;;;;;;;1999.90;999.90;;;;;;;15.80;100.00;91848.59;4921831;29;20221;-62
2022/08/30 01:59:14;;;;;;;1999.90;999.90;;;;;;;15.78;100.00;91842.84;4921826;29;20205;-62
2022/08/30 02:01:41;;;;;;;1999.90;999.90;;;;;;;15.71;100.00;91843.47;4921209;29;20197;-61
2022/08/30 02:04:07;;;;;;;1999.90;999.90;;;;;;;15.71;100.00;91843.47;4921135;29;20197;-62
2022/08/30 02:06:33;;;;;;;1999.90;999.90;;;;;;;15.70;100.00;93822.50;4921439;29;20264;-61
2022/08/30 02:08:59;;;;;;;1999.90;999.90;;;;;;;15.67;100.00;93930.78;4921756;29;20194;-61
2022/08/30 02:11:25;;;;;;;1999.90;999.90;;;;;;;15.69;100.00;93931.81;4920986;29;20190;-62
2022/08/30 02:13:51;;;;;;;1999.90;999.90;;;;;;;15.69;100.00;93925.56;4937358;29;20190;-61
2022/08/30 02:16:21;;;;;;;1999.90;999.90;;;;;;;15.67;100.00;93917.03;4920809;29;20219;-61
2022/08/30 02:18:47;;;;;;;1999.90;999.90;;;;;;;15.63;100.00;93928.19;4921173;29;20190;-61
2022/08/30 02:21:13;;;;;;;1999.90;999.90;;;;;;;15.60;100.00;93926.41;4920986;29;20179;-61
2022/08/30 02:23:39;;;;;;;1999.90;999.90;;;;;;;15.56;100.00;93925.81;4920765;29;20213;-61
2022/08/30 02:26:05;;;;;;;1999.90;999.90;;;;;;;15.58;100.00;93922.59;4920927;29;20265;-61
2022/08/30 02:28:30;;;;;;;1999.90;999.90;;;;;;;15.56;100.00;93914.78;4920064;29;20216;-62
2022/08/30 02:30:55;;;;;;;1999.90;999.90;;;;;;;15.55;100.00;93918.78;4920814;29;20193;-61
2022/08/30 02:33:21;;;;;;;1999.90;999.90;;;;;;;15.53;100.00;93913.00;4920439;29;20190;-61
2022/08/30 02:35:46;;;;;;;1999.90;999.90;;;;;;;15.48;100.00;93913.66;4920751;29;20190;-61
2022/08/30 02:38:13;;;;;;;1999.90;999.90;;;;;;;15.43;100.00;93922.56;4936739;29;20198;-61
2022/08/30 02:40:38;;;;;;;1999.90;999.90;;;;;;;15.40;100.00;93920.75;4920718;29;20193;-61
2022/08/30 02:43:03;;;;;;;1999.90;999.90;;;;;;;15.36;100.00;93913.88;4921142;29;20193;-61
2022/08/30 02:45:29;;;;;;;1999.90;999.90;;;;;;;15.32;100.00;93921.53;4937139;29;20189;-61
2022/08/30 02:47:57;;;;;;;1999.90;999.90;;;;;;;15.27;100.00;93917.44;4921039;29;20221;-61
2022/08/30 02:50:23;;;;;;;1999.90;999.90;;;;;;;15.27;100.00;93906.44;4920427;29;20190;-61
2022/08/30 02:52:49;;;;;;;1999.90;999.90;;;;;;;15.26;100.00;93913.16;4936481;29;20197;-61
2022/08/30 02:55:14;;;;;;;1999.90;999.90;;;;;;;15.26;100.00;93904.91;4920493;29;20185;-62
2022/08/30 02:57:40;;;;;;;1999.90;999.90;;;;;;;15.27;100.00;93911.94;4920557;29;20226;-61
2022/08/30 03:00:11;;;;;;;1999.90;999.90;;;;;;;15.26;100.00;93904.91;4920521;29;20186;-61
2022/08/30 03:02:37;;;;;;;1999.90;999.90;;;;;;;15.23;100.00;93905.84;4920582;29;20190;-61
2022/08/30 03:05:03;;;;;;;1999.90;999.90;;;;;;;15.24;100.00;93901.88;4920535;29;20218;-62
2022/08/30 03:07:28;;;;;;;1999.90;999.90;;;;;;;15.23;100.00;93903.09;4920717;29;20210;-62
2022/08/30 03:09:54;;;;;;;1999.90;999.90;;;;;;;15.20;100.00;93904.06;4920867;29;20201;-61
2022/08/30 03:12:19;;;;;;;1999.90;999.90;;;;;;;15.23;100.00;93897.59;4920455;29;20190;-61
2022/08/30 03:14:44;;;;;;;1999.90;999.90;;;;;;;15.24;100.00;93896.38;4920330;29;20189;-61
2022/08/30 03:17:10;;;;;;;1999.90;999.90;;;;;;;15.24;100.00;93890.88;4920282;29;20194;-62
2022/08/30 03:19:36;;;;;;;1999.90;999.90;;;;;;;15.22;100.00;93885.09;4920205;29;20201;-61
2022/08/30 03:22:06;;;;;;;1999.90;999.90;;;;;;;15.18;100.00;93892.75;4936101;29;20268;-62
2022/08/30 03:24:33;;;;;;;1999.90;999.90;;;;;;;15.17;100.00;93902.25;4920219;29;20225;-61
2022/08/30 03:26:58;;;;;;;1999.90;999.90;;;;;;;15.19;100.00;93891.50;4920533;29;20206;-61
2022/08/30 03:29:24;;;;;;;1999.90;999.90;;;;;;;15.22;100.00;93893.34;4920102;29;20196;-61
2022/08/30 03:31:51;;;;;;;1999.90;999.90;;;;;;;15.22;100.00;93898.06;4935722;29;20212;-61
2022/08/30 03:34:16;;;;;;;1999.90;999.90;;;;;;;15.20;100.00;93900.53;4919942;29;20197;-62
2022/08/30 03:36:42;;;;;;;1999.90;999.90;;;;;;;15.18;100.00;93903.75;4920022;29;20221;-61
2022/08/30 03:39:08;;;;;;;1999.90;999.90;;;;;;;15.12;100.00;93908.38;4919769;29;20196;-61
2022/08/30 03:41:34;;;;;;;1999.90;999.90;;;;;;;15.07;100.00;93916.50;4935216;29;20205;-62
2022/08/30 03:44:01;;;;;;;1999.90;999.90;;;;;;;15.03;100.00;93924.94;4920127;29;20189;-62
2022/08/30 03:46:26;;;;;;;1999.90;999.90;;;;;;;14.98;100.00;93911.84;4919812;29;20202;-62
2022/08/30 03:48:54;;;;;;;1999.90;999.90;;;;;;;15.01;100.00;93910.13;4919638;29;20198;-62
2022/08/30 03:51:21;;;;;;;1999.90;999.90;;;;;;;15.03;100.00;93907.66;4935457;29;20186;-62
2022/08/30 03:53:47;;;;;;;1999.90;999.90;;;;;;;15.01;100.00;93902.63;4919555;29;20182;-62
2022/08/30 03:56:12;;;;;;;1999.90;999.90;;;;;;;14.92;100.00;93896.44;4919754;29;20566;-62
2022/08/30 03:58:39;;;;;;;1999.90;999.90;;;;;;;14.86;100.00;93910.06;4935494;29;20187;-61
2022/08/30 04:01:05;;;;;;;1999.90;999.90;;;;;;;14.85;100.00;93897.53;4935650;29;20194;-62
2022/08/30 04:03:30;;;;;;;1999.90;999.90;;;;;;;14.82;100.00;93898.47;4919519;29;20174;-64
2022/08/30 04:05:56;;;;;;;1999.90;999.90;;;;;;;14.79;100.00;93888.41;4919662;29;20197;-62
2022/08/30 04:08:21;;;;;;;1999.90;999.90;;;;;;;14.79;100.00;93887.66;4919881;29;20210;-63
2022/08/30 04:10:47;;;;;;;1999.90;999.90;;;;;;;14.78;100.00;93881.41;4935268;29;20197;-62
2022/08/30 04:13:14;;;;;;;1999.90;999.90;;;;;;;14.73;100.00;93884.81;4935267;29;20186;-62
2022/08/30 04:15:40;;;;;;;1999.90;999.90;;;;;;;14.72;100.00;93877.75;4919631;29;20225;-63
2022/08/30 04:18:06;;;;;;;1999.90;999.90;;;;;;;14.72;100.00;93883.25;4935579;29;20282;-63
2022/08/30 04:20:31;;;;;;;1999.90;999.90;;;;;;;14.73;100.00;93878.53;4919509;29;20240;-62
2022/08/30 04:22:57;;;;;;;1999.90;999.90;;;;;;;14.74;100.00;93869.81;4919393;29;20193;-62
2022/08/30 04:25:22;;;;;;;1999.90;999.90;;;;;;;14.75;100.00;93876.84;4919310;29;20202;-62
2022/08/30 04:27:48;;;;;;;1999.90;999.90;;;;;;;14.76;100.00;93878.38;4919199;29;20216;-64
2022/08/30 04:30:15;;;;;;;1999.90;999.90;;;;;;;14.74;100.00;93875.31;4935183;29;20272;-64
2022/08/30 04:32:41;;;;;;;1999.90;999.90;;;;;;;14.77;100.00;93879.88;4934667;29;20190;-64
2022/08/30 04:35:08;;;;;;;1999.90;999.90;;;;;;;14.78;100.00;93884.16;4919758;29;20288;-63
2022/08/30 04:37:33;;;;;;;1999.90;999.90;;;;;;;14.80;100.00;93886.44;4918977;29;20197;-63
2022/08/30 04:39:59;;;;;;;1999.90;999.90;;;;;;;14.82;100.00;93887.47;4919025;29;20186;-63
2022/08/30 04:42:28;;;;;;;1999.90;999.90;;;;;;;14.92;100.00;93877.97;4919065;29;20217;-62
2022/08/30 04:44:54;;;;;;;1999.90;999.90;;;;;;;15.07;100.00;93887.03;4919306;29;20194;-63
2022/08/30 04:47:19;;;;;;;1999.90;999.90;;;;;;;15.27;100.00;93897.44;4919011;29;20270;-62
2022/08/30 04:49:45;;;;;;;1999.90;999.90;;;;;;;15.55;100.00;93896.78;4919139;29;20210;-62
2022/08/30 04:52:10;;;;;;;1999.90;999.90;;;;;;;15.90;100.00;93902.44;4919904;29;20214;-62
2022/08/30 04:54:36;;;;;;;1999.90;999.90;;;;;;;16.14;100.00;93912.13;4922553;29;20218;-62
2022/08/30 04:57:01;;;;;;;1999.90;999.90;;;;;;;16.44;100.00;93946.72;4938217;29;20292;-62
2022/08/30 04:59:27;;;;;;;1999.90;999.90;;;;;;;16.69;100.00;93983.22;4938330;29;20210;-61
2022/08/30 05:01:53;;;;;;;1999.90;999.90;;;;;;;17.00;100.00;94008.31;4922381;29;20202;-62
2022/08/30 05:04:18;;;;;;;1999.90;999.90;;;;;;;17.27;100.00;94046.59;4921964;29;20270;-63
2022/08/30 05:06:44;;;;;;;1999.90;999.90;;;;;;;17.55;100.00;94080.94;4922021;29;20193;-63
2022/08/30 05:09:09;;;;;;;1999.90;999.90;;;;;;;17.76;100.00;94127.41;4921996;29;20188;-63
2022/08/30 05:11:35;;;;;;;1999.90;999.90;;;;;;;18.08;100.00;94150.47;4922474;29;20197;-64
2022/08/30 05:14:01;;;;;;;1999.90;999.90;;;;;;;18.28;100.00;94187.19;4922488;29;20229;-62
2022/08/30 05:16:26;;;;;;;1999.90;999.90;;;;;;;18.62;100.00;94216.06;4921842;29;20248;-63
2022/08/30 05:18:53;;;;;;;1999.90;999.90;;;;;;;18.82;100.00;94246.50;4937844;29;20178;-63
2022/08/30 05:21:22;;;;;;;1999.90;999.90;;;;;;;19.14;100.00;94267.53;4921864;29;20256;-64
2022/08/30 05:23:48;;;;;;;1999.90;999.90;;;;;;;19.38;100.00;94287.47;4921719;29;20189;-65
2022/08/30 05:26:22;;;;;;;1999.90;999.90;;;;;;;19.61;100.00;94305.84;4938656;29;20241;-66
2022/08/30 05:28:48;;;;;;;1999.90;999.90;;;;;;;19.77;100.00;94321.13;4937581;29;20213;-65
2022/08/30 05:31:15;;;;;;;1999.90;999.90;;;;;;;20.10;100.00;94322.22;4921354;29;20200;-63
2022/08/30 05:33:41;;;;;;;1999.90;999.90;;;;;;;20.65;100.00;94355.97;4938146;29;20196;-63
2022/08/30 05:36:08;;;;;;;1999.90;999.90;;;;;;;20.86;100.00;94412.91;4921769;29;20189;-66
2022/08/30 05:38:33;;;;;;;1999.90;999.90;;;;;;;21.31;100.00;94392.50;4921744;29;20190;-65
2022/08/30 05:40:59;;;;;;;1999.90;999.90;;;;;;;21.66;100.00;94379.03;4921721;29;20198;-64
2022/08/30 05:43:24;;;;;;;1999.90;999.90;;;;;;;22.07;100.00;94385.03;4921935;29;20229;-64
2022/08/30 05:46:00;;;;;;;1999.90;999.90;;;;;;;22.58;100.00;94364.38;4921666;29;20241;-64
2022/08/30 05:48:26;;;;;;;1999.90;999.90;;;;;;;22.80;100.00;94361.59;4921674;29;20245;-65
2022/08/30 05:51:01;;;;;;;1999.90;999.90;;;;;;;22.45;100.00;94360.06;4921948;29;20218;-64
2022/08/30 05:53:26;;;;;;;1999.90;999.90;;;;;;;22.48;100.00;94370.19;4921644;29;20197;-64
2022/08/30 05:55:51;;;;;;;1999.90;999.90;;;;;;;22.67;100.00;94364.13;4921437;29;20186;-64
2022/08/30 05:58:17;;;;;;;1999.90;999.90;;;;;;;22.81;100.00;94366.66;4921244;29;20253;-62
2022/08/30 06:00:42;;;;;;;1999.90;999.90;;;;;;;22.90;100.00;94365.63;4921361;29;20224;-63
2022/08/30 06:03:10;;;;;;;1999.90;999.90;;;;;;;23.08;100.00;94362.31;4936804;29;20182;-63
2022/08/30 06:05:36;;;;;;;1999.90;999.90;;;;;;;23.45;100.00;94354.41;4921254;29;20245;-62
2022/08/30 06:08:01;;;;;;;1999.90;999.90;;;;;;;23.67;100.00;94371.03;4921162;29;20202;-62
2022/08/30 06:10:27;;;;;;;1999.90;999.90;;;;;;;23.67;100.00;94371.03;4921718;29;20217;-62
2022/08/30 06:12:52;;;;;;;1999.90;999.90;;;;;;;24.39;100.00;94561.28;4921143;29;20182;-62
2022/08/30 06:15:17;;;;;;;1999.90;999.90;;;;;;;25.00;100.00;94648.44;4921207;29;20190;-63
2022/08/30 06:17:43;;;;;;;1999.90;999.90;;;;;;;25.38;100.00;94474.88;4921071;29;20254;-63
2022/08/30 06:20:09;;;;;;;1999.90;999.90;;;;;;;25.55;100.00;94466.31;4920728;29;20186;-63
2022/08/30 06:22:35;;;;;;;1999.90;999.90;;;;;;;26.00;100.00;94680.13;4936774;29;20190;-65
2022/08/30 06:25:00;;;;;;;1999.90;999.90;;;;;;;25.85;100.00;94762.94;4920936;29;20276;-64
2022/08/30 06:27:26;;;;;;;1999.90;999.90;;;;;;;26.11;100.00;94883.69;4920764;29;20202;-64
2022/08/30 06:29:52;;;;;;;1999.90;999.90;;;;;;;26.17;100.00;95075.59;4936913;29;20182;-66
2022/08/30 06:32:17;;;;;;;1999.90;999.90;;;;;;;26.44;100.00;95066.34;4920814;29;20280;-65
2022/08/30 06:34:43;;;;;;;1999.90;999.90;;;;;;;26.69;100.00;95292.28;4920706;29;20349;-65
2022/08/30 06:37:08;;;;;;;1999.90;999.90;;;;;;;26.57;100.00;95287.94;4921167;29;20194;-65
2022/08/30 06:39:35;;;;;;;1999.90;999.90;;;;;;;27.22;100.00;95443.47;4920712;29;20202;-64
2022/08/30 06:42:00;;;;;;;1999.90;999.90;;;;;;;27.66;100.00;95550.09;4921061;29;20182;-65
2022/08/30 06:44:26;;;;;;;1999.90;999.90;;;;;;;28.28;100.00;95709.69;4920600;29;20190;-64
2022/08/30 06:46:51;;;;;;;1999.90;999.90;;;;;;;28.19;100.00;95872.91;4920563;29;20221;-64
2022/08/30 06:49:17;;;;;;;1999.90;999.90;;;;;;;28.27;100.00;95986.38;4920602;29;20210;-64
2022/08/30 06:51:42;;;;;;;1999.90;999.90;;;;;;;28.51;100.00;96078.75;4920574;29;20266;-64
2022/08/30 06:54:09;;;;;;;1999.90;999.90;;;;;;;29.39;100.00;96157.88;4920335;29;20178;-64
2022/08/30 06:56:35;;;;;;;1999.90;999.90;;;;;;;29.75;100.00;96207.66;4920090;29;20189;-64
2022/08/30 06:59:01;;;;;;;1999.90;999.90;;;;;;;29.97;100.00;96212.56;4936728;29;20190;-64
2022/08/30 07:01:28;;;;;;;1999.90;999.90;;;;;;;30.34;100.00;96187.72;4936250;29;20202;-65
2022/08/30 07:03:54;;;;;;;1999.90;999.90;;;;;;;30.66;100.00;96160.72;4920428;29;20220;-65
2022/08/30 07:06:21;;;;;;;1999.90;999.90;;;;;;;30.87;100.00;96153.50;4935990;29;20189;-65
2022/08/30 07:08:48;;;;;;;1999.90;999.90;;;;;;;31.41;100.00;96050.06;4936347;29;20226;-65
2022/08/30 07:11:14;;;;;;;1999.90;999.90;;;;;;;31.69;100.00;95878.25;4920994;29;20197;-65
2022/08/30 07:13:39;;;;;;;1999.90;999.90;;;;;;;32.11;95.39;95815.28;4920614;29;20232;-65
2022/08/30 07:16:10;;;;;;;1999.90;999.90;;;;;;;31.72;97.79;95746.41;4919292;29;20190;-65
2022/08/30 07:18:53;;;;;;;1999.90;999.90;;;;;;;31.65;95.78;95722.34;4920190;29;20190;-65
2022/08/30 07:21:25;;;;;;;1999.90;999.90;;;;;;;32.16;94.18;95707.00;4936309;29;20190;-66
2022/08/30 07:23:51;;;;;;;1999.90;999.90;;;;;;;32.73;90.93;95600.78;4920909;29;20186;-64
2022/08/30 07:26:22;;;;;;;1999.90;999.90;;;;;;;32.88;87.58;95561.41;4919903;29;20193;-66
2022/08/30 07:28:48;;;;;;;1999.90;999.90;;;;;;;32.57;91.81;95526.25;4920684;29;20217;-65
2022/08/30 07:31:15;;;;;;;1999.90;999.90;;;;;;;33.42;84.90;95541.69;4920064;29;20198;-66
2022/08/30 07:33:40;;;;;;;1999.90;999.90;;;;;;;33.93;79.61;95550.53;4919836;29;20186;-65
2022/08/30 07:36:06;;;;;;;1999.90;999.90;;;;;;;33.80;78.17;95557.75;4920204;29;20186;-65
2022/08/30 07:38:32;;;;;;;1999.90;999.90;;;;;;;32.62;83.41;95544.41;4935718;29;20256;-65
2022/08/30 07:40:59;;;;;;;1999.90;999.90;;;;;;;33.82;76.20;95566.47;4919877;29;20276;-65
2022/08/30 07:43:28;;;;;;;1999.90;999.90;;;;;;;33.32;78.90;95572.53;4919730;29;20186;-65
2022/08/30 07:45:56;;;;;;;1999.90;999.90;;;;;;;33.66;78.15;95570.50;4919872;29;20186;-65
2022/08/30 07:48:21;;;;;;;1999.90;999.90;;;;;;;34.26;73.45;95580.88;4935234;29;20209;-65
2022/08/30 07:50:47;;;;;;;1999.90;999.90;;;;;;;35.02;68.43;95597.91;4919399;29;20237;-65
2022/08/30 07:53:13;;;;;;;1999.90;999.90;;;;;;;34.61;68.60;95602.91;4935707;29;20201;-64
2022/08/30 07:55:38;;;;;;;1999.90;999.90;;;;;;;34.69;68.90;95598.03;4919720;29;20266;-64
2022/08/30 07:58:04;;;;;;;1999.90;999.90;;;;;;;33.80;72.41;95605.94;4919749;29;20182;-64
2022/08/30 08:00:30;;;;;;;1999.90;999.90;;;;;;;32.66;80.59;95602.22;4919528;29;20182;-64
2022/08/30 08:02:55;;;;;;;1999.90;999.90;;;;;;;34.03;73.17;95611.09;4935663;29;20186;-63
2022/08/30 08:05:20;;;;;;;1999.90;999.90;;;;;;;34.15;68.90;95604.59;4919497;29;20212;-65
2022/08/30 08:07:46;;;;;;;1999.90;999.90;;;;;;;34.75;68.78;95610.00;4935479;29;20205;-65
2022/08/30 08:10:12;;;;;;;1999.90;999.90;;;;;;;35.02;64.02;95614.16;4919256;29;20274;-65
2022/08/30 08:12:38;;;;;;;1999.90;999.90;;;;;;;34.65;64.35;95611.84;4919390;29;20272;-64
2022/08/30 08:15:04;;;;;;;1999.90;999.90;;;;;;;33.32;72.64;95615.00;4919624;29;20190;-64
2022/08/30 08:17:30;;;;;;;1999.90;999.90;;;;;;;33.83;71.47;95615.44;4919656;29;20280;-65
2022/08/30 08:19:55;;;;;;;1999.90;999.90;;;;;;;33.39;72.42;95611.53;4919711;29;20185;-66
2022/08/30 08:22:20;;;;;;;1999.90;999.90;;;;;;;35.38;63.78;95604.34;4934710;29;20190;-66
2022/08/30 08:24:46;;;;;;;1999.90;999.90;;;;;;;34.52;65.27;95609.09;4919396;29;20194;-66
2022/08/30 08:27:11;;;;;;;1999.90;999.90;;;;;;;34.33;65.54;95611.41;4921777;29;20289;-65
2022/08/30 08:29:37;;;;;;;1999.90;999.90;;;;;;;33.58;68.86;95614.97;4923103;29;20186;-65
2022/08/30 08:32:02;;;;;;;1999.90;999.90;;;;;;;33.47;71.59;95617.31;4922944;29;20265;-65
2022/08/30 08:34:28;;;;;;;1999.90;999.90;;;;;;;33.77;68.32;95624.09;4923059;29;20197;-65
2022/08/30 08:36:53;;;;;;;1999.90;999.90;;;;;;;34.17;66.58;95609.72;4922539;29;20181;-65
2022/08/30 08:39:19;;;;;;;1999.90;999.90;;;;;;;35.42;64.72;95612.50;4922423;29;20185;-65
2022/08/30 08:41:59;;;;;;;1999.90;999.90;;;;;;;35.06;64.79;95608.91;4922440;29;20185;-66
2022/08/30 08:44:39;;;;;;;1999.90;999.90;;;;;;;34.78;59.79;95618.19;4938271;29;20217;-66
2022/08/30 08:47:14;;;;;;;1999.90;999.90;;;;;;;33.68;63.68;95621.69;4922888;29;20205;-65
2022/08/30 08:49:43;;;;;;;1999.90;999.90;;;;;;;33.22;66.48;95619.59;4938390;29;20288;-67
2022/08/30 08:55:08;;;;;;;1999.90;999.90;;;;;;;33.29;67.49;95624.59;4939718;29;20197;-65
2022/08/30 08:57:35;;;;;;;1999.90;999.90;;;;;;;33.78;60.67;95625.59;4922624;29;20263;-66
2022/08/30 09:00:12;;;;;;;1999.90;999.90;;;;;;;33.23;65.06;95621.16;4922203;29;20238;-66
2022/08/30 09:03:07;;;;;;;1999.90;999.90;;;;;;;33.76;63.56;95616.13;4922621;29;20227;-66
2022/08/30 09:05:38;;;;;;;1999.90;999.90;;;;;;;33.06;67.14;95608.63;4921872;29;20208;-66
2022/08/30 09:08:07;;;;;;;1999.90;999.90;;;;;;;33.41;59.97;95614.59;4937773;29;20202;-65
2022/08/30 09:10:34;;;;;;;1999.90;999.90;;;;;;;33.50;63.42;95605.63;4921804;29;20189;-66
2022/08/30 09:13:00;;;;;;;1999.90;999.90;;;;;;;34.22;60.92;95601.06;4938296;29;20186;-66
2022/08/30 09:15:32;;;;;;;1999.90;999.90;;;;;;;33.17;63.83;95606.34;4937796;29;20200;-66
2022/08/30 09:18:01;;;;;;;1999.90;999.90;;;;;;;34.22;57.63;95614.50;4922461;29;20197;-67
2022/08/30 09:20:31;;;;;;;1999.90;999.90;;;;;;;34.96;57.07;95605.06;4921872;29;20192;-66
2022/08/30 09:22:58;;;;;;;1999.90;999.90;;;;;;;34.01;59.65;95602.41;4937706;29;20249;-66
2022/08/30 09:25:27;;;;;;;1999.90;999.90;;;;;;;35.09;57.42;95602.09;4921990;29;20236;-66
2022/08/30 09:28:06;;;;;;;1999.90;999.90;;;;;;;34.02;56.61;95603.91;4921882;29;20248;-66
2022/08/30 09:30:32;;;;;;;1999.90;999.90;;;;;;;32.73;60.12;95601.56;4937887;29;20280;-67
2022/08/30 09:33:01;;;;;;;1999.90;999.90;;;;;;;31.07;69.60;95609.09;4937518;29;20253;-69
2022/08/30 09:35:37;;;;;;;1999.90;999.90;;;;;;;32.97;63.75;95598.53;4921568;29;20276;-66
2022/08/30 09:38:06;;;;;;;1999.90;999.90;;;;;;;33.91;58.41;95592.84;4936918;29;20190;-66
2022/08/30 09:40:42;;;;;;;1999.90;999.90;;;;;;;33.68;59.28;95593.34;4937258;29;20177;-65
2022/08/30 09:43:14;;;;;;;1999.90;999.90;;;;;;;33.01;61.98;95590.47;4937537;29;20281;-65
2022/08/30 09:46:03;;;;;;;1999.90;999.90;;;;;;;31.48;62.10;95591.09;4937416;29;20174;-66
2022/08/30 09:48:30;;;;;;;1999.90;999.90;;;;;;;31.17;63.35;95587.66;4921760;29;20281;-67
2022/08/30 09:51:07;;;;;;;1999.90;999.90;;;;;;;31.48;65.14;95579.78;4937096;29;20201;-66
2022/08/30 09:53:36;;;;;;;1999.90;999.90;;;;;;;32.26;65.70;95575.16;4937380;29;20194;-66
2022/08/30 09:56:09;;;;;;;1999.90;999.90;;;;;;;32.74;59.49;95571.94;4921363;29;20193;-65
2022/08/30 09:58:47;;;;;;;1999.90;999.90;;;;;;;31.88;64.00;95578.66;4921712;29;20260;-66
2022/08/30 10:01:19;;;;;;;1999.90;999.90;;;;;;;30.52;69.92;95569.50;4937402;29;20189;-66
2022/08/30 10:03:56;;;;;;;1999.90;999.90;;;;;;;31.84;60.96;95567.69;4921508;29;20178;-66
2022/08/30 10:06:32;;;;;;;1999.90;999.90;;;;;;;32.48;63.60;95566.28;4921711;29;20200;-66
2022/08/30 10:09:19;;;;;;;1999.90;999.90;;;;;;;32.72;63.91;95563.25;4936776;29;20213;-67
2022/08/30 10:12:07;;;;;;;1999.90;999.90;;;;;;;32.52;61.53;95558.22;4937144;29;20300;-66
2022/08/30 10:14:54;;;;;;;1999.90;999.90;;;;;;;31.81;66.90;95560.28;4936781;29;20186;-67
2022/08/30 10:17:37;;;;;;;1999.90;999.90;;;;;;;33.15;65.60;95549.50;4936650;29;20201;-66
2022/08/30 10:20:22;;;;;;;1999.90;999.90;;;;;;;33.19;58.14;95551.97;4937254;29;20267;-66
2022/08/30 10:22:53;;;;;;;1999.90;999.90;;;;;;;31.86;63.71;95559.41;4937151;29;20238;-66
2022/08/30 10:25:29;;;;;;;1999.90;999.90;;;;;;;30.99;65.81;95550.97;4936615;29;20185;-67
2022/08/30 10:28:05;;;;;;;1999.90;999.90;;;;;;;31.98;70.08;95543.03;4920910;29;20338;-66
2022/08/30 10:30:35;;;;;;;1999.90;999.90;;;;;;;31.60;68.85;95536.72;4936601;29;20189;-66
2022/08/30 10:33:21;;;;;;;1999.90;999.90;;;;;;;32.47;61.67;95550.63;4921397;29;21091;-66
2022/08/30 10:35:52;;;;;;;1999.90;999.90;;;;;;;31.69;65.14;95541.97;4936892;29;20185;-66
2022/08/30 10:38:24;;;;;;;1999.90;999.90;;;;;;;32.12;62.04;95536.84;4920734;29;20190;-67
2022/08/30 10:41:14;;;;;;;1999.90;999.90;;;;;;;32.50;53.53;95540.28;4921062;29;20186;-66
2022/08/30 10:43:58;;;;;;;1999.90;999.90;;;;;;;31.89;59.42;95538.56;4921111;29;20209;-66
2022/08/30 10:46:42;;;;;;;1999.90;999.90;;;;;;;32.70;57.05;95533.97;4936436;29;20228;-66
2022/08/30 10:49:14;;;;;;;1999.90;999.90;;;;;;;33.62;55.75;95526.78;4919988;29;20210;-66
2022/08/30 10:52:15;;;;;;;1999.90;999.90;;;;;;;32.21;62.30;95527.97;4920294;29;20239;-66
2022/08/30 10:54:49;;;;;;;1999.90;999.90;;;;;;;32.69;59.16;95524.72;4936339;29;20189;-66
2022/08/30 10:57:14;;;;;;;1999.90;999.90;;;;;;;32.15;60.60;95535.78;4920757;29;20190;-66
2022/08/30 10:59:58;;;;;;;1999.90;999.90;;;;;;;32.04;62.26;95523.94;4920741;29;20220;-66